Time;durP1;ratioP1;P1;durP2;ratioP2;P2;SDS_P1;SDS_P2;PMS_P1;PMS_P2;Temp;Humidity;BMP_temperature;BMP_pressure;BME280_temperature;BME280_humidity;BME280_pressure;Samples;Min_cycle;Max_cycle;Signal;HPM_P1;HPM_P2
2021/11/19 00:02:20;;;;;;;4.20;3.43;;;;;;;7.83;100.00;100866.61;5232005;56;1138913;-85
2021/11/19 00:07:25;;;;;;;3.90;3.50;;;;;;;7.85;100.00;100856.84;5232824;56;1138909;-86
2021/11/19 00:12:31;;;;;;;7.53;4.50;;;;;;;7.86;100.00;100854.58;5232832;56;1138976;-84
2021/11/19 00:17:38;;;;;;;5.83;3.60;;;;;;;7.86;100.00;100858.06;5233038;56;1138901;-86
2021/11/19 00:22:44;;;;;;;4.50;3.47;;;;;;;7.88;100.00;100860.14;5181700;56;1138890;-87
2021/11/19 00:27:49;;;;;;;4.97;3.93;;;;;;;7.90;100.00;100858.27;5116964;57;1138940;-89
2021/11/19 00:32:55;;;;;;;7.60;3.80;;;;;;;7.94;100.00;100858.92;5057334;58;1138993;-85
2021/11/19 00:38:02;;;;;;;4.27;3.87;;;;;;;7.93;100.00;100860.71;5055996;58;1138870;-87
2021/11/19 00:43:11;;;;;;;6.70;5.07;;;;;;;7.96;100.00;100858.34;5058906;58;1138960;-86
2021/11/19 00:48:19;;;;;;;6.63;4.50;;;;;;;7.98;100.00;100854.67;5058784;58;1138943;-84
2021/11/19 00:53:26;;;;;;;5.07;4.57;;;;;;;8.00;100.00;100859.38;5058637;57;1138901;-85
2021/11/19 00:58:34;;;;;;;7.77;4.67;;;;;;;8.01;100.00;100865.03;5058712;58;1138934;-86
2021/11/19 01:03:40;;;;;;;6.00;5.07;;;;;;;8.04;100.00;100865.31;5030524;57;1138896;-85
2021/11/19 01:08:46;;;;;;;10.07;4.80;;;;;;;8.04;100.00;100856.94;5021687;58;1138941;-85
2021/11/19 01:13:55;;;;;;;6.70;5.67;;;;;;;8.07;100.00;100860.70;5062866;58;1141245;-86
2021/11/19 01:19:11;;;;;;;8.63;5.70;;;;;;;8.05;100.00;100859.95;5062107;58;1139055;-87
2021/11/19 01:24:19;;;;;;;7.00;5.10;;;;;;;8.09;100.00;100854.88;5140490;57;1138917;-86
2021/11/19 01:29:25;;;;;;;6.30;4.50;;;;;;;8.08;100.00;100858.92;5150948;57;1139029;-83
2021/11/19 01:34:31;;;;;;;4.20;3.80;;;;;;;8.08;100.00;100855.81;5151199;57;1138907;-87
2021/11/19 01:39:41;;;;;;;6.13;5.13;;;;;;;8.09;100.00;100861.94;5148325;57;1139022;-88
2021/11/19 01:45:11;;;;;;;5.40;4.73;;;;;;;8.11;100.00;100852.97;5110905;57;1137118;-86
2021/11/19 01:50:31;;;;;;;9.90;6.00;;;;;;;8.12;100.00;100844.13;5146777;57;1137266;-85
2021/11/19 01:55:45;;;;;;;4.87;4.20;;;;;;;8.13;100.00;100839.23;5151033;57;1136886;-85
2021/11/19 02:00:55;;;;;;;6.80;4.10;;;;;;;8.16;100.00;100842.16;5151409;57;1136848;-85
2021/11/19 02:06:18;;;;;;;4.63;3.57;;;;;;;8.17;100.00;100824.56;5151319;57;1136874;-83
2021/11/19 02:11:34;;;;;;;;;;;;;;;8.19;100.00;100816.94;5154776;57;1136873;-83
2021/11/19 02:16:44;;;;;;;5.13;4.67;;;;;;;8.19;100.00;100822.68;5151491;57;1096452;-82
2021/11/19 02:22:09;;;;;;;4.12;3.72;;;;;;;8.21;100.00;100826.92;5147700;57;1138991;-84
2021/11/19 02:27:32;;;;;;;5.13;4.63;;;;;;;8.23;100.00;100827.67;5140972;57;1139183;-87
2021/11/19 02:32:42;;;;;;;5.37;4.57;;;;;;;8.25;100.00;100827.08;5142010;57;1138950;-83
2021/11/19 02:37:53;;;;;;;8.57;4.77;;;;;;;8.25;100.00;100821.80;5141671;57;1139172;-84
2021/11/19 02:43:12;;;;;;;8.43;5.23;;;;;;;8.27;100.00;100822.56;5141662;57;1138800;-85
2021/11/19 02:48:26;;;;;;;6.03;5.43;;;;;;;8.34;100.00;100815.16;5141931;57;1139140;-88
2021/11/19 02:53:33;;;;;;;8.03;4.47;;;;;;;8.38;100.00;100828.52;5142362;57;1139020;-86
2021/11/19 02:58:44;;;;;;;6.07;5.47;;;;;;;8.42;100.00;100824.25;5142329;57;1139043;-87
2021/11/19 03:03:55;;;;;;;10.47;6.93;;;;;;;8.45;100.00;100816.63;5132401;57;1138943;-87
2021/11/19 03:09:01;;;;;;;7.53;5.67;;;;;;;8.48;100.00;100817.76;5129912;57;1141007;-87
2021/11/19 03:14:09;;;;;;;11.57;5.90;;;;;;;8.50;100.00;100809.28;5130348;57;1138915;-85
2021/11/19 03:19:16;;;;;;;6.53;5.43;;;;;;;8.52;100.00;100807.39;5130233;57;1140982;-85
2021/11/19 03:24:24;;;;;;;8.50;6.30;;;;;;;8.54;100.00;100800.71;5148646;57;1138965;-85
2021/11/19 03:29:31;;;;;;;8.00;6.27;;;;;;;8.56;100.00;100801.43;5150400;57;1138926;-87
2021/11/19 03:34:39;;;;;;;5.80;5.07;;;;;;;8.58;100.00;100814.89;5054942;58;1139016;-89
2021/11/19 03:39:46;;;;;;;5.50;4.90;;;;;;;8.60;100.00;100805.09;5055076;58;1138952;-87
2021/11/19 03:44:59;;;;;;;8.70;5.22;;;;;;;8.63;100.00;100800.95;5054790;58;1138921;-88
2021/11/19 03:50:12;;;;;;;5.33;4.60;;;;;;;8.68;100.00;100802.83;5055169;58;1139265;-88
2021/11/19 03:55:23;;;;;;;22.37;3.67;;;;;;;8.70;100.00;100812.80;5054551;58;1139182;-86
2021/11/19 04:00:40;;;;;;;5.13;4.33;;;;;;;8.73;100.00;100810.41;5054401;58;1138920;-84
2021/11/19 04:05:48;;;;;;;5.13;4.60;;;;;;;8.76;100.00;100807.58;5043551;57;1136920;-86
2021/11/19 04:10:54;;;;;;;4.40;4.00;;;;;;;8.81;100.00;100815.58;5043147;58;1136795;-86
2021/11/19 04:16:05;;;;;;;6.13;3.87;;;;;;;8.86;100.00;100823.67;5034037;58;1136905;-88
2021/11/19 04:21:12;;;;;;;3.70;3.20;;;;;;;8.89;100.00;100825.61;5182224;56;1137021;-85
2021/11/19 04:26:19;;;;;;;5.70;4.20;;;;;;;8.92;100.00;100828.05;5216579;56;1136832;-84
2021/11/19 04:31:28;;;;;;;9.87;5.57;;;;;;;8.96;100.00;100832.66;5211248;56;1136849;-84
2021/11/19 04:36:37;;;;;;;8.27;4.30;;;;;;;8.99;100.00;100841.70;5212585;56;1137146;-83
2021/11/19 04:41:45;;;;;;;7.00;4.37;;;;;;;9.03;100.00;100832.61;5217530;56;1136913;-83
2021/11/19 04:46:52;;;;;;;12.40;5.60;;;;;;;9.05;100.00;100842.59;5147604;56;1137055;-83
2021/11/19 04:51:58;;;;;;;9.07;5.17;;;;;;;9.05;100.00;100843.44;5291437;55;1138959;-84
2021/11/19 04:57:05;;;;;;;10.37;5.37;;;;;;;9.09;100.00;100839.66;5295361;56;1134801;-83
2021/11/19 05:02:15;;;;;;;9.37;4.00;;;;;;;9.11;100.00;100831.64;5295181;55;1136825;-85
2021/11/19 05:07:23;;;;;;;11.50;4.60;;;;;;;9.12;100.00;100830.70;5294580;55;1139067;-83
2021/11/19 05:12:38;;;;;;;11.17;4.93;;;;;;;9.13;100.00;100828.44;5295116;55;1141002;-84
2021/11/19 05:17:44;;;;;;;2.63;2.43;;;;;;;9.14;100.00;100822.21;5287372;56;1141007;-83
2021/11/19 05:22:52;;;;;;;10.60;4.33;;;;;;;9.16;100.00;100833.52;5155664;56;1138911;-83
2021/11/19 05:27:59;;;;;;;3.90;3.60;;;;;;;9.18;100.00;100832.44;5067841;58;1141022;-84
2021/11/19 05:33:08;;;;;;;3.30;3.10;;;;;;;9.21;100.00;100829.23;5068094;58;1139015;-83
2021/11/19 05:38:15;;;;;;;2.87;2.67;;;;;;;9.23;100.00;100830.82;5067923;58;1138925;-83
2021/11/19 05:43:21;;;;;;;6.60;3.33;;;;;;;9.26;100.00;100831.09;5067880;58;1138928;-84
2021/11/19 05:48:29;;;;;;;29.13;7.87;;;;;;;9.26;100.00;100825.34;5064289;58;1138967;-83
2021/11/19 05:53:35;;;;;;;19.50;4.87;;;;;;;9.26;100.00;100839.86;5067876;58;1141078;-84
2021/11/19 05:58:42;;;;;;;3.57;3.07;;;;;;;9.30;100.00;100841.83;5067681;58;1141035;-84
2021/11/19 06:03:51;;;;;;;12.17;4.83;;;;;;;9.31;100.00;100835.12;5070244;58;1138924;-83
2021/11/19 06:09:00;;;;;;;13.37;5.73;;;;;;;9.35;100.00;100837.91;5078646;58;1141219;-84
2021/11/19 06:14:11;;;;;;;4.77;1.97;;;;;;;9.37;100.00;100835.17;5078559;58;1141080;-83
2021/11/19 06:19:22;;;;;;;2.50;2.13;;;;;;;9.39;100.00;100843.36;5078658;58;1139434;-84
2021/11/19 06:24:38;;;;;;;1.97;1.77;;;;;;;9.42;100.00;100835.23;5078862;58;1138913;-84
2021/11/19 06:29:44;;;;;;;2.30;2.10;;;;;;;9.42;100.00;100834.39;5079566;58;1138980;-83
2021/11/19 06:34:50;;;;;;;2.27;2.12;;;;;;;9.46;100.00;100835.41;5079366;58;1138973;-83
2021/11/19 06:39:56;;;;;;;1.20;1.20;;;;;;;9.49;100.00;100839.61;5079269;58;1138903;-83
2021/11/19 06:45:05;;;;;;;2.00;1.90;;;;;;;9.51;100.00;100835.92;5079013;58;1139114;-83
2021/11/19 06:50:16;;;;;;;2.33;2.00;;;;;;;9.55;100.00;100836.56;5079013;58;1139034;-83
2021/11/19 06:55:29;;;;;;;1.90;1.80;;;;;;;9.59;100.00;100836.73;5059391;58;1139050;-83
2021/11/19 07:00:46;;;;;;;1.70;1.60;;;;;;;9.61;100.00;100855.12;5077943;58;1138981;-83
2021/11/19 07:05:53;;;;;;;2.13;2.03;;;;;;;9.65;100.00;100864.02;5079751;57;1139028;-83
2021/11/19 07:11:03;;;;;;;2.60;2.40;;;;;;;9.67;100.00;100855.53;5080342;58;1138998;-83
2021/11/19 07:16:09;;;;;;;2.13;2.03;;;;;;;9.71;100.00;100872.02;5080119;58;1137029;-84
2021/11/19 07:21:15;;;;;;;2.27;2.13;;;;;;;9.73;100.00;100880.69;5095200;57;1136853;-83
2021/11/19 07:26:23;;;;;;;2.53;2.40;;;;;;;9.76;100.00;100883.97;5095576;57;1136890;-84
2021/11/19 07:31:30;;;;;;;2.30;2.10;;;;;;;9.79;100.00;100890.81;5081260;58;1136950;-83
2021/11/19 07:36:37;;;;;;;2.77;2.57;;;;;;;9.81;100.00;100892.41;5076781;58;1137079;-83
2021/11/19 07:42:00;;;;;;;4.70;3.37;;;;;;;9.85;100.00;100888.61;5078238;58;1136919;-83
2021/11/19 07:47:08;;;;;;;2.57;2.37;;;;;;;9.89;100.00;100885.29;5046543;58;1137027;-83
2021/11/19 07:52:15;;;;;;;3.47;2.67;;;;;;;9.93;100.00;100876.69;5155999;57;1137130;-84
2021/11/19 07:57:21;;;;;;;2.87;2.67;;;;;;;9.98;100.00;100889.92;5088963;57;1137220;-83
2021/11/19 08:02:26;;;;;;;3.43;2.70;;;;;;;10.02;100.00;100898.02;5081370;58;1136898;-82
2021/11/19 08:07:35;;;;;;;3.80;2.90;;;;;;;10.08;100.00;100899.41;5080415;58;1139254;-83
2021/11/19 08:12:58;;;;;;;2.53;2.27;;;;;;;10.12;100.00;100905.67;5080065;57;1140890;-83
2021/11/19 08:18:14;;;;;;;2.35;2.22;;;;;;;10.15;100.00;100909.42;5080209;58;1140918;-83
2021/11/19 08:23:33;;;;;;;2.70;1.97;;;;;;;10.18;100.00;100909.25;5129518;57;1141087;-84
2021/11/19 08:28:37;;;;;;;2.13;1.97;;;;;;;10.19;100.00;100900.38;5051897;57;1140960;-82
2021/11/19 08:33:44;;;;;;;2.00;1.70;;;;;;;10.22;100.00;100899.32;5241593;56;1141244;-83
2021/11/19 08:38:50;;;;;;;1.90;1.80;;;;;;;10.26;100.00;100907.85;5241433;56;1140947;-83
2021/11/19 08:43:58;;;;;;;2.10;1.93;;;;;;;10.32;100.00;100905.64;5241673;56;1140931;-83
2021/11/19 08:49:08;;;;;;;2.40;2.20;;;;;;;10.34;100.00;100910.82;5241271;56;1141004;-83
2021/11/19 08:54:16;;;;;;;4.60;2.70;;;;;;;10.38;100.00;100903.90;5241327;56;1141090;-82
2021/11/19 08:59:25;;;;;;;2.87;2.30;;;;;;;10.42;100.00;100923.02;5241294;56;1141000;-83
2021/11/19 09:04:33;;;;;;;4.57;2.23;;;;;;;10.45;100.00;100920.16;5251715;55;1141321;-83
2021/11/19 09:09:41;;;;;;;4.00;3.00;;;;;;;10.49;100.00;100916.34;5230562;55;1141047;-84
2021/11/19 09:14:47;;;;;;;3.33;2.50;;;;;;;10.51;100.00;100914.45;5219350;56;1141340;-83
2021/11/19 09:20:06;;;;;;;2.90;2.70;;;;;;;10.52;100.00;100901.12;5219504;56;1140914;-82
2021/11/19 09:25:16;;;;;;;2.70;2.50;;;;;;;10.57;100.00;100923.25;5133585;57;1141090;-83
2021/11/19 09:30:31;;;;;;;3.63;2.93;;;;;;;10.59;100.00;100906.80;5133880;57;1141239;-87
2021/11/19 09:35:38;;;;;;;2.30;2.10;;;;;;;10.62;100.00;100917.16;5133524;57;1141049;-77
2021/11/19 09:41:13;;;;;;;2.80;2.47;;;;;;;10.63;100.00;100920.17;5133938;57;1141114;-85
2021/11/19 09:46:30;;;;;;;3.60;3.17;;;;;;;10.67;100.00;100919.48;4979975;59;1141253;-81
2021/11/19 09:51:55;;;;;;;5.93;2.63;;;;;;;10.70;100.00;100933.80;4979357;59;1138955;-83
2021/11/19 09:57:35;;;;;;;5.70;2.90;;;;;;;10.71;100.00;100926.23;4962209;59;1139194;-80
2021/11/19 10:03:16;;;;;;;3.43;3.10;;;;;;;10.71;100.00;100913.84;4981019;59;1139035;-79
2021/11/19 10:08:44;;;;;;;2.70;2.60;;;;;;;10.76;100.00;100916.17;4967523;59;1141094;-87
2021/11/19 10:14:10;;;;;;;6.27;3.87;;;;;;;10.76;100.00;100917.02;4902332;59;1141154;-78
2021/11/19 10:19:34;;;;;;;6.50;3.67;;;;;;;10.77;100.00;100925.80;4885299;60;1141035;-84
2021/11/19 10:24:48;;;;;;;5.30;3.70;;;;;;;10.77;100.00;100929.30;5206589;56;1140931;-79
2021/11/19 10:30:07;;;;;;;12.20;4.58;;;;;;;10.77;100.00;100920.51;5212157;56;1141130;-84
2021/11/19 10:35:28;;;;;;;9.30;4.27;;;;;;;10.77;100.00;100905.95;5192420;56;1143272;-83
2021/11/19 10:41:19;;;;;;;4.28;3.87;;;;;;;10.75;100.00;100914.00;5211895;56;1141118;-84
2021/11/19 10:47:04;;;;;;;5.62;3.72;;;;;;;10.74;100.00;100905.70;5211063;56;1141030;-84
2021/11/19 10:52:30;;;;;;;;;;;;;;;10.74;100.00;100912.31;5215535;56;1139007;-84
2021/11/19 10:58:26;;;;;;;6.33;4.50;;;;;;;10.76;100.00;100905.59;5201246;56;976219;-83
2021/11/19 11:03:42;;;;;;;6.83;4.50;;;;;;;10.75;100.00;100905.22;5163082;56;1139330;-82
2021/11/19 11:08:49;;;;;;;5.90;4.33;;;;;;;10.75;100.00;100906.55;5216413;55;1141151;-83
2021/11/19 11:14:07;;;;;;;7.03;5.03;;;;;;;10.76;100.00;100905.11;5308074;55;1141003;-84
2021/11/19 11:19:18;;;;;;;6.50;4.57;;;;;;;10.76;100.00;100903.79;5321333;55;1141223;-84
2021/11/19 11:24:51;;;;;;;5.17;4.13;;;;;;;10.78;100.00;100903.68;5257820;55;1140960;-84
2021/11/19 11:30:10;;;;;;;6.03;4.43;;;;;;;10.78;100.00;100907.66;5247690;56;1141034;-84
2021/11/19 11:35:44;;;;;;;4.33;3.10;;;;;;;10.80;100.00;100906.59;5242973;56;1141060;-84
2021/11/19 11:40:56;;;;;;;;;;;;;;;10.82;100.00;100912.62;5246751;56;1141107;-82
2021/11/19 11:46:18;;;;;;;7.27;4.03;;;;;;;10.85;100.00;100903.59;5245625;56;978340;-84
2021/11/19 11:51:29;;;;;;;4.43;3.57;;;;;;;10.82;100.00;100907.33;5079201;58;1139091;-83
2021/11/19 11:56:42;;;;;;;4.87;3.10;;;;;;;10.85;100.00;100904.44;5078769;58;1141058;-82
2021/11/19 12:02:00;;;;;;;7.87;3.33;;;;;;;10.85;100.00;100907.08;5075180;58;1141213;-83
2021/11/19 12:07:59;;;;;;;2.90;2.70;;;;;;;10.84;100.00;100885.58;5079414;58;1139027;-83
2021/11/19 12:13:40;;;;;;;3.40;3.10;;;;;;;10.86;100.00;100881.47;5117192;57;1139029;-83
2021/11/19 12:19:01;;;;;;;2.97;2.70;;;;;;;10.87;100.00;100875.22;5119927;57;1141031;-83
2021/11/19 12:24:47;;;;;;;7.57;3.90;;;;;;;10.88;100.00;100871.62;5097207;56;1141107;-83
2021/11/19 12:30:31;;;;;;;4.13;3.73;;;;;;;10.88;100.00;100869.81;5215718;56;1141164;-83
2021/11/19 12:36:02;;;;;;;5.87;3.03;;;;;;;10.90;100.00;100878.97;5252116;56;1140963;-84
2021/11/19 12:41:37;;;;;;;7.00;4.47;;;;;;;10.91;100.00;100877.53;5251762;56;1141361;-85
2021/11/19 12:47:16;;;;;;;5.00;3.00;;;;;;;10.93;100.00;100869.02;5251893;56;1140994;-82
2021/11/19 12:52:47;;;;;;;4.97;3.57;;;;;;;10.96;100.00;100876.36;5251944;56;1139013;-83
2021/11/19 12:58:24;;;;;;;4.60;3.13;;;;;;;10.96;100.00;100871.92;5251850;56;1138897;-84
2021/11/19 13:04:22;;;;;;;4.63;3.37;;;;;;;11.00;100.00;100878.65;5251795;56;1139146;-84
2021/11/19 13:09:47;;;;;;;9.33;3.40;;;;;;;11.02;100.00;100876.73;5249062;56;1141012;-82
2021/11/19 13:15:13;;;;;;;3.90;3.10;;;;;;;11.05;100.00;100878.32;5216682;56;1141006;-82
2021/11/19 13:20:53;;;;;;;4.53;3.30;;;;;;;11.07;100.00;100890.97;5240282;56;1141070;-82
2021/11/19 13:26:14;;;;;;;6.53;3.33;;;;;;;11.10;100.00;100889.42;5241604;56;1141066;-82
2021/11/19 13:31:36;;;;;;;3.47;2.60;;;;;;;11.12;100.00;100891.00;5242399;56;1141089;-81
2021/11/19 13:36:52;;;;;;;5.15;3.65;;;;;;;11.17;100.00;100894.61;5238166;56;1141197;-84
2021/11/19 13:42:11;;;;;;;4.87;3.40;;;;;;;11.18;100.00;100881.75;5237847;56;1141018;-82
2021/11/19 13:47:34;;;;;;;4.27;2.97;;;;;;;11.19;100.00;100880.79;5242362;56;1141049;-82
2021/11/19 13:53:02;;;;;;;4.60;3.30;;;;;;;11.22;100.00;100886.70;5242681;56;1139058;-82
2021/11/19 13:58:42;;;;;;;4.93;3.40;;;;;;;11.24;100.00;100883.47;5242486;56;1138909;-81
2021/11/19 14:03:54;;;;;;;7.77;3.50;;;;;;;11.26;100.00;100874.09;5242419;56;1139294;-83
2021/11/19 14:09:09;;;;;;;5.87;3.43;;;;;;;11.28;100.00;100870.86;5242883;56;1136914;-82
2021/11/19 14:14:20;;;;;;;7.40;3.07;;;;;;;11.27;100.00;100872.66;5251730;56;1140340;-84
2021/11/19 14:25:08;;;;;;;68.97;39.50;;;;;;;11.28;100.00;100882.29;5192987;56;1145137;-83
2021/11/19 14:30:36;;;;;;;19.97;16.60;;;;;;;11.31;100.00;100879.02;5251443;56;1145348;-83
2021/11/19 14:35:47;;;;;;;16.77;13.87;;;;;;;11.33;100.00;100883.25;5251385;55;1145157;-83
2021/11/19 14:41:06;;;;;;;7.90;6.57;;;;;;;11.32;100.00;100893.47;5251484;55;1145209;-81
2021/11/19 14:46:17;;;;;;;8.93;5.20;;;;;;;11.28;100.00;100896.86;5248651;55;1140931;-85
2021/11/19 14:51:50;;;;;;;7.10;4.07;;;;;;;11.28;100.00;100892.88;5247854;55;1141051;-85
2021/11/19 14:57:20;;;;;;;9.40;5.60;;;;;;;11.25;100.00;100885.16;5246824;55;1141062;-83
2021/11/19 15:03:04;;;;;;;8.53;5.03;;;;;;;11.21;100.00;100885.02;5252221;55;1141272;-82
2021/11/19 15:08:24;;;;;;;4.53;4.13;;;;;;;11.20;100.00;100880.67;5252347;55;1138946;-82
2021/11/19 15:13:40;;;;;;;6.97;4.27;;;;;;;11.19;100.00;100883.44;5224658;55;1138955;-81
2021/11/19 15:18:50;;;;;;;6.97;3.83;;;;;;;11.16;100.00;100872.59;5214977;56;1138976;-81
2021/11/19 15:24:06;;;;;;;9.67;5.37;;;;;;;11.16;100.00;100880.53;5144095;56;1139017;-81
2021/11/19 15:29:25;;;;;;;4.83;3.87;;;;;;;11.15;100.00;100869.58;5117051;57;1136850;-84
2021/11/19 15:34:52;;;;;;;4.87;3.90;;;;;;;11.17;100.00;100883.55;5127502;57;1140950;-80
2021/11/19 15:40:00;;;;;;;13.53;11.10;;;;;;;11.18;100.00;100885.23;5127312;57;1141076;-81
2021/11/19 15:45:07;;;;;;;13.27;11.97;;;;;;;11.19;100.00;100875.49;5126877;57;1145179;-81
2021/11/19 15:50:16;;;;;;;8.43;6.17;;;;;;;11.21;100.00;100874.42;5127171;57;1145331;-83
2021/11/19 15:55:45;;;;;;;3.43;3.00;;;;;;;11.22;100.00;100883.21;5127275;57;1141091;-82
2021/11/19 16:00:51;;;;;;;3.43;3.03;;;;;;;11.22;100.00;100885.38;5127168;57;1141000;-83
2021/11/19 16:06:25;;;;;;;3.27;3.03;;;;;;;11.22;100.00;100892.48;5127210;57;1141073;-82
2021/11/19 16:11:56;;;;;;;3.03;2.73;;;;;;;11.22;100.00;100885.86;5133545;57;1140900;-83
2021/11/19 16:17:11;;;;;;;54.00;15.47;;;;;;;11.21;100.00;100882.37;5151585;56;1141118;-82
2021/11/19 16:22:17;;;;;;;137.87;39.67;;;;;;;11.23;100.00;100883.58;5195535;56;1145227;-82
2021/11/19 16:27:29;;;;;;;208.00;74.63;;;;;;;11.24;100.00;100882.62;5242550;56;1147242;-80
2021/11/19 16:32:38;;;;;;;74.70;29.03;;;;;;;11.24;100.00;100870.71;5242446;56;1147269;-82
2021/11/19 16:37:43;;;;;;;75.73;29.50;;;;;;;11.25;100.00;100871.92;5242465;56;1145207;-82
2021/11/19 16:42:49;;;;;;;7.57;4.97;;;;;;;11.25;100.00;100865.78;5242549;56;1145658;-81
2021/11/19 16:47:58;;;;;;;9.63;4.40;;;;;;;11.27;100.00;100854.60;5242560;56;1141050;-81
2021/11/19 16:53:09;;;;;;;5.23;2.57;;;;;;;11.34;100.00;100858.94;5242587;56;1139017;-82
2021/11/19 16:58:16;;;;;;;14.40;5.10;;;;;;;11.34;100.00;100862.91;5242634;56;1138954;-82
2021/11/19 17:03:22;;;;;;;7.50;3.37;;;;;;;11.32;100.00;100855.08;5242779;56;1141092;-82
2021/11/19 17:08:28;;;;;;;9.77;5.00;;;;;;;11.34;100.00;100866.88;5242585;56;1138896;-81
2021/11/19 17:13:37;;;;;;;4.67;3.50;;;;;;;11.32;100.00;100878.91;5246838;56;1139038;-80
2021/11/19 17:18:44;;;;;;;7.17;3.77;;;;;;;11.32;100.00;100869.64;5251736;56;1139029;-80
2021/11/19 17:23:49;;;;;;;3.47;2.30;;;;;;;11.33;100.00;100859.89;5251683;56;1139159;-82
2021/11/19 17:28:59;;;;;;;8.03;3.00;;;;;;;11.32;100.00;100876.73;5251678;56;1138955;-85
2021/11/19 17:34:05;;;;;;;6.60;2.17;;;;;;;11.32;100.00;100869.64;5229634;56;1138950;-82
2021/11/19 17:39:16;;;;;;;3.07;2.30;;;;;;;11.35;100.00;100883.98;5224374;56;1138989;-83
2021/11/19 17:44:22;;;;;;;6.07;2.10;;;;;;;11.36;100.00;100864.48;5227579;56;1138907;-83
2021/11/19 17:49:30;;;;;;;8.37;2.00;;;;;;;11.31;100.00;100862.66;5227628;56;1139160;-81
2021/11/19 17:54:36;;;;;;;4.63;2.30;;;;;;;11.38;100.00;100873.64;5204495;56;1139116;-83
2021/11/19 17:59:43;;;;;;;8.83;2.80;;;;;;;11.38;100.00;100866.55;5217481;56;1136995;-82
2021/11/19 18:04:51;;;;;;;1.80;1.70;;;;;;;11.43;100.00;100875.48;5212186;56;1136795;-84
2021/11/19 18:09:56;;;;;;;8.20;3.23;;;;;;;11.45;100.00;100866.94;5210922;56;1140951;-84
2021/11/19 18:15:04;;;;;;;7.17;3.37;;;;;;;11.45;100.00;100867.78;5193899;56;1140969;-82
2021/11/19 18:20:17;;;;;;;8.27;1.93;;;;;;;11.44;100.00;100868.74;5209322;56;1141040;-84
2021/11/19 18:25:28;;;;;;;;;;;;;;;11.46;100.00;100874.74;5245351;56;1141238;-84
2021/11/19 18:30:38;;;;;;;7.53;1.80;;;;;;;11.49;100.00;100880.29;5239151;56;978225;-83
2021/11/19 18:35:45;;;;;;;5.90;2.35;;;;;;;11.48;100.00;100882.58;5218565;56;1138798;-85
2021/11/19 18:40:55;;;;;;;6.80;3.83;;;;;;;11.48;100.00;100870.66;5242943;56;1141096;-84
2021/11/19 18:46:02;;;;;;;8.73;3.13;;;;;;;11.50;100.00;100863.44;5241385;56;1141181;-87
2021/11/19 18:51:11;;;;;;;6.07;2.40;;;;;;;11.51;100.00;100864.66;5243443;56;1141194;-87
2021/11/19 18:56:18;;;;;;;7.80;3.43;;;;;;;11.55;100.00;100876.71;5243465;56;1141040;-85
2021/11/19 19:01:28;;;;;;;7.87;2.50;;;;;;;11.55;100.00;100877.19;5242620;56;1141008;-85
2021/11/19 19:06:36;;;;;;;8.07;2.90;;;;;;;11.58;100.00;100875.64;5242172;56;1140917;-83
2021/11/19 19:12:00;;;;;;;4.57;2.30;;;;;;;11.59;100.00;100884.80;5261283;55;1140828;-84
2021/11/19 19:17:14;;;;;;;16.20;2.03;;;;;;;11.60;100.00;100899.73;5282714;55;1141112;-82
2021/11/19 19:22:22;;;;;;;4.90;1.90;;;;;;;11.61;100.00;100881.52;5249933;55;1143048;-88
2021/11/19 19:27:37;;;;;;;8.23;2.33;;;;;;;11.61;100.00;100891.28;5217996;55;1140998;-87
2021/11/19 19:32:41;;;;;;;5.05;1.87;;;;;;;11.60;100.00;100902.39;5189325;56;1141233;-86
2021/11/19 19:37:53;;;;;;;9.20;1.70;;;;;;;11.62;100.00;100893.81;5196230;56;1141079;-87
2021/11/19 19:43:02;;;;;;;6.77;1.60;;;;;;;11.61;100.00;100893.92;5208482;56;1141238;-85
2021/11/19 19:48:14;;;;;;;11.47;2.50;;;;;;;11.64;100.00;100896.34;5202212;56;1140843;-83
2021/11/19 19:53:22;;;;;;;;;;;;;;;11.62;100.00;100884.54;5199038;56;1143086;-84
2021/11/19 19:58:28;;;;;;;4.30;1.30;;;;;;;11.63;100.00;100889.36;5202558;56;978507;-88
2021/11/19 20:03:34;;;;;;;5.40;1.43;;;;;;;11.62;100.00;100896.46;5220056;56;1139087;-86
2021/11/19 20:08:40;;;;;;;8.60;1.80;;;;;;;11.64;100.00;100891.05;5217424;56;1138902;-88
2021/11/19 20:13:51;;;;;;;9.20;1.93;;;;;;;11.66;100.00;100903.70;5214980;56;1139441;-87
2021/11/19 20:18:57;;;;;;;2.53;0.97;;;;;;;11.63;100.00;100898.63;5209990;56;1139221;-89
2021/11/19 20:24:03;;;;;;;11.53;1.80;;;;;;;11.63;100.00;100894.18;5239104;55;1138998;-92
2021/11/19 20:29:18;;;;;;;3.83;1.37;;;;;;;11.61;100.00;100893.45;5222878;55;1141008;-88
2021/11/19 20:34:24;;;;;;;9.47;1.77;;;;;;;11.63;100.00;100897.31;5210158;56;1138843;-87
2021/11/19 20:39:31;;;;;;;6.57;2.10;;;;;;;11.62;100.00;100895.62;5206394;56;1139036;-87
2021/11/19 20:44:42;;;;;;;4.73;1.50;;;;;;;11.61;100.00;100880.68;5208141;56;1139158;-86
2021/11/19 20:49:49;;;;;;;8.33;2.67;;;;;;;11.60;99.94;100874.57;5198215;56;1139211;-86
2021/11/19 20:54:55;;;;;;;9.57;2.43;;;;;;;11.55;100.00;100875.39;5203419;56;1136950;-89
2021/11/19 21:00:03;;;;;;;6.30;1.80;;;;;;;11.48;100.00;100872.83;5206235;56;1139177;-86
2021/11/19 21:05:12;;;;;;;7.63;1.63;;;;;;;11.44;100.00;100883.31;5168384;56;1138951;-86
2021/11/19 21:10:21;;;;;;;8.87;2.50;;;;;;;11.43;100.00;100888.72;5205068;56;1139094;-86
2021/11/19 21:15:32;;;;;;;6.20;2.63;;;;;;;11.40;100.00;100889.79;5192860;56;1136923;-87
2021/11/19 21:20:40;;;;;;;6.13;1.67;;;;;;;11.39;100.00;100898.69;5197038;56;1140925;-86
2021/11/19 21:26:01;;;;;;;10.07;2.30;;;;;;;11.39;100.00;100896.52;5204402;56;1140966;-87
2021/11/19 21:31:11;;;;;;;5.47;1.70;;;;;;;11.35;100.00;100903.84;5212386;56;1143273;-83
2021/11/19 21:36:19;;;;;;;8.80;2.57;;;;;;;11.33;100.00;100898.29;5216974;56;1141043;-90
2021/11/19 21:41:29;;;;;;;8.37;1.70;;;;;;;11.34;100.00;100890.23;5217643;56;1140998;-86
2021/11/19 21:46:36;;;;;;;9.43;1.70;;;;;;;11.36;100.00;100888.32;5218848;56;1141020;-86
2021/11/19 21:51:48;;;;;;;7.10;3.30;;;;;;;11.38;100.00;100900.12;5218601;56;1141400;-87
2021/11/19 21:56:59;;;;;;;4.80;1.60;;;;;;;11.39;100.00;100901.34;5218213;56;1141053;-87
2021/11/19 22:02:15;;;;;;;5.13;1.57;;;;;;;11.41;100.00;100902.07;5218620;56;1141069;-86
2021/11/19 22:07:26;;;;;;;7.17;1.70;;;;;;;11.43;100.00;100905.94;5218944;56;1141067;-90
2021/11/19 22:12:31;;;;;;;10.83;2.60;;;;;;;11.46;100.00;100905.20;5218775;56;1141173;-88
2021/11/19 22:17:37;;;;;;;5.70;2.10;;;;;;;11.46;100.00;100912.30;5189891;56;1143396;-87
2021/11/19 22:22:43;;;;;;;2.43;0.87;;;;;;;11.47;100.00;100902.07;5204809;56;1141197;-87
2021/11/19 22:27:49;;;;;;;4.47;1.70;;;;;;;11.44;100.00;100897.87;5244345;56;1141266;-84
2021/11/19 22:32:55;;;;;;;5.13;1.60;;;;;;;11.43;100.00;100882.94;5244255;56;1141080;-85
2021/11/19 22:38:08;;;;;;;9.80;1.97;;;;;;;11.42;100.00;100898.47;5243992;56;1141030;-88
2021/11/19 22:43:18;;;;;;;5.40;1.30;;;;;;;11.42;100.00;100898.47;5244125;56;1140946;-87
2021/11/19 22:48:23;;;;;;;4.00;1.13;;;;;;;11.45;100.00;100906.19;5243591;56;1141051;-88
2021/11/19 22:53:30;;;;;;;5.35;1.40;;;;;;;11.44;100.00;100904.50;5242374;56;1141078;-89
2021/11/19 22:58:39;;;;;;;4.33;1.30;;;;;;;11.44;100.00;100889.09;5243634;56;1141332;-87
2021/11/19 23:03:49;;;;;;;6.17;1.63;;;;;;;11.45;100.00;100898.24;5243497;56;1140977;-90
2021/11/19 23:08:56;;;;;;;8.57;1.97;;;;;;;11.44;100.00;100883.31;5243981;56;1141093;-89
2021/11/19 23:14:05;;;;;;;3.20;1.30;;;;;;;11.43;100.00;100880.30;5244878;56;1140998;-91
2021/11/19 23:19:13;;;;;;;15.20;1.80;;;;;;;11.41;100.00;100876.91;5229896;56;1141156;-90
2021/11/19 23:24:23;;;;;;;7.60;1.63;;;;;;;11.40;100.00;100872.58;5139772;56;1141175;-87
2021/11/19 23:29:32;;;;;;;4.60;1.37;;;;;;;11.42;100.00;100871.14;5129206;57;1138889;-88
2021/11/19 23:34:45;;;;;;;3.70;2.00;;;;;;;11.42;100.00;100859.22;5129271;57;1139158;-86
2021/11/19 23:39:52;;;;;;;7.33;1.40;;;;;;;11.39;100.00;100869.56;5129534;57;1138938;-87